AIRPORT ID: S03

DATE: 2021-12-09 ZULU TIME: 0.55 LOCAL TIME: 16.55


METAR KS03 090055Z AUTO 00000KT 10SM 07/06 A3000

ALTIMETER: A3000 Q1016

DENSITY ALT: 1300 Ft

WIND DIRECT: 260

WIND SPEED: 0 Gust

WIND CONDITIONS:

VISIBILTY: 10SM 9999M

TEMPERATURE: 44 F 7 C

DEW POINT: 43 F 6 C

HUMID: 96%

LCL: Above 5,000 feet

RADIO CHECK: 1

ADVISARIES: 2

GREETINGS: 0

CONVERSATIONS: 2